Wetterdaten: aktuell Donnerstag, 09.07.2020 11:40
Datum Zeit Temp. A. Feuchte A. Luftdruck Regen Wind Sonnenschein ET UV Solar Taupunkt Windchill Windben Empfang
09.07.2020 11:40 17,6 C 91 % 1014,8 hPa 0,0 l/m 0,2 km/h (0 Bft) 5 min 0,000 mm 1,0 UV-I 127 W/m 16,1 C 17,6 C 6,4 km/h (2 Bft) 99 %
09.07.2020 11:35 17,4 C 91 % 1014,7 hPa 0,0 l/m 0,0 km/h (0 Bft) 5 min 0,000 mm 1,4 UV-I 167 W/m 15,9 C 17,4 C 1,6 km/h (1 Bft) 100 %
09.07.2020 11:30 17,3 C 91 % 1014,7 hPa 0,0 l/m 0,9 km/h (0 Bft) 5 min 0,000 mm 1,2 UV-I 146 W/m 15,8 C 17,3 C 4,8 km/h (1 Bft) 100 %
09.07.2020 11:25 17,2 C 92 % 1014,8 hPa 0,0 l/m 0,5 km/h (0 Bft) 5 min 0,000 mm 1,0 UV-I 127 W/m 15,9 C 17,2 C 6,4 km/h (2 Bft) 100 %
09.07.2020 11:20 17,1 C 92 % 1014,9 hPa 0,0 l/m 0,5 km/h (0 Bft) 5 min 0,000 mm 1,0 UV-I 128 W/m 15,8 C 17,1 C 6,4 km/h (2 Bft) 100 %
09.07.2020 11:15 16,9 C 92 % 1014,9 hPa 0,0 l/m 0,4 km/h (0 Bft) 5 min 0,000 mm 1,7 UV-I 200 W/m 15,6 C 16,9 C 4,8 km/h (1 Bft) 99 %
09.07.2020 11:10 16,7 C 92 % 1014,9 hPa 0,0 l/m 0,6 km/h (0 Bft) 5 min 0,000 mm 1,7 UV-I 213 W/m 15,4 C 16,7 C 4,8 km/h (1 Bft) 100 %
09.07.2020 11:05 16,7 C 92 % 1015,0 hPa 0,0 l/m 0,1 km/h (0 Bft) 5 min 0,000 mm 1,6 UV-I 216 W/m 15,4 C 16,7 C 1,6 km/h (1 Bft) 100 %
09.07.2020 11:00 16,6 C 93 % 1014,9 hPa 0,0 l/m 0,0 km/h (0 Bft) 5 min 0,076 mm 1,0 UV-I 146 W/m 15,5 C 16,6 C 1,6 km/h (1 Bft) 100 %
09.07.2020 10:55 16,4 C 93 % 1014,9 hPa 0,0 l/m 0,0 km/h (0 Bft) 5 min 0,000 mm 0,7 UV-I 102 W/m 15,3 C 16,4 C 3,2 km/h (1 Bft) 100 %
09.07.2020 10:50 16,4 C 93 % 1015,0 hPa 0,0 l/m 0,2 km/h (0 Bft) 5 min 0,000 mm 0,7 UV-I 104 W/m 15,3 C 16,4 C 3,2 km/h (1 Bft) 98 %
09.07.2020 10:45 16,3 C 93 % 1015,0 hPa 0,0 l/m 0,0 km/h (0 Bft) 5 min 0,000 mm 1,1 UV-I 146 W/m 15,2 C 16,3 C 0,0 km/h (0 Bft) 100 %
09.07.2020 10:40 16,2 C 93 % 1015,0 hPa 0,0 l/m 0,5 km/h (0 Bft) 5 min 0,000 mm 1,3 UV-I 185 W/m 15,1 C 16,2 C 4,8 km/h (1 Bft) 100 %
09.07.2020 10:35 16,2 C 93 % 1015,1 hPa 0,0 l/m 0,0 km/h (0 Bft) 5 min 0,000 mm 1,4 UV-I 200 W/m 15,1 C 16,2 C 0,0 km/h (0 Bft) 100 %
09.07.2020 10:30 16,0 C 93 % 1015,1 hPa 0,0 l/m 0,0 km/h (0 Bft) 5 min 0,000 mm 1,5 UV-I 211 W/m 14,9 C 16,0 C 0,0 km/h (0 Bft) 100 %
09.07.2020 10:25 15,9 C 94 % 1015,2 hPa 0,0 l/m 0,0 km/h (0 Bft) 5 min 0,000 mm 1,2 UV-I 179 W/m 14,9 C 15,9 C 0,0 km/h (0 Bft) 99 %
09.07.2020 10:20 15,7 C 93 % 1015,2 hPa 0,0 l/m 0,0 km/h (0 Bft) 5 min 0,000 mm 1,1 UV-I 169 W/m 14,6 C 15,7 C 0,0 km/h (0 Bft) 99 %
09.07.2020 10:15 15,6 C 93 % 1015,1 hPa 0,0 l/m 0,1 km/h (0 Bft) 5 min 0,000 mm 1,6 UV-I 264 W/m 14,5 C 15,6 C 1,6 km/h (1 Bft) 100 %
09.07.2020 10:10 15,6 C 93 % 1015,3 hPa 0,2 l/m 1,3 km/h (1 Bft) 5 min 0,000 mm 1,2 UV-I 172 W/m 14,5 C 15,6 C 4,8 km/h (1 Bft) 100 %
09.07.2020 10:05 15,5 C 93 % 1015,3 hPa 0,2 l/m 0,0 km/h (0 Bft) 5 min 0,000 mm 0,8 UV-I 120 W/m 14,4 C 15,5 C 0,0 km/h (0 Bft) 100 %
09.07.2020 10:00 15,5 C 93 % 1015,4 hPa 0,0 l/m 0,0 km/h (0 Bft) 0 min 0,076 mm 0,0 UV-I 70 W/m 14,4 C 15,5 C 1,6 km/h (1 Bft) 100 %
09.07.2020 09:55 15,5 C 93 % 1015,4 hPa 0,2 l/m 0,1 km/h (0 Bft) 0 min 0,000 mm 0,5 UV-I 84 W/m 14,4 C 15,5 C 3,2 km/h (1 Bft) 100 %
09.07.2020 09:50 15,4 C 93 % 1015,5 hPa 0,0 l/m 0,0 km/h (0 Bft) 0 min 0,000 mm 0,5 UV-I 93 W/m 14,3 C 15,4 C 0,0 km/h (0 Bft) 99 %
09.07.2020 09:45 15,3 C 93 % 1015,5 hPa 0,0 l/m 0,2 km/h (0 Bft) 5 min 0,000 mm 0,6 UV-I 116 W/m 14,2 C 15,3 C 4,8 km/h (1 Bft) 98 %
09.07.2020 09:40 15,3 C 93 % 1015,6 hPa 0,0 l/m 1,2 km/h (1 Bft) 5 min 0,000 mm 0,8 UV-I 151 W/m 14,2 C 15,3 C 6,4 km/h (2 Bft) 100 %
09.07.2020 09:35 15,2 C 93 % 1015,6 hPa 0,0 l/m 1,3 km/h (1 Bft) 5 min 0,000 mm 0,8 UV-I 148 W/m 14,1 C 15,2 C 4,8 km/h (1 Bft) 100 %
09.07.2020 09:30 15,2 C 94 % 1015,6 hPa 0,0 l/m 1,1 km/h (1 Bft) 5 min 0,000 mm 0,7 UV-I 123 W/m 14,2 C 15,2 C 4,8 km/h (1 Bft) 100 %
09.07.2020 09:25 15,1 C 94 % 1015,7 hPa 0,0 l/m 2,1 km/h (1 Bft) 5 min 0,000 mm 0,7 UV-I 121 W/m 14,1 C 15,1 C 6,4 km/h (2 Bft) 100 %
09.07.2020 09:20 15,1 C 94 % 1015,7 hPa 0,0 l/m 1,1 km/h (1 Bft) 5 min 0,000 mm 0,6 UV-I 120 W/m 14,1 C 15,1 C 6,4 km/h (2 Bft) 100 %
09.07.2020 09:15 15,0 C 94 % 1015,8 hPa 0,0 l/m 1,4 km/h (1 Bft) 5 min 0,000 mm 0,9 UV-I 165 W/m 14,0 C 15,0 C 6,4 km/h (2 Bft) 100 %
09.07.2020 09:10 14,9 C 94 % 1015,7 hPa 0,0 l/m 0,2 km/h (0 Bft) 5 min 0,000 mm 0,9 UV-I 153 W/m 13,9 C 14,9 C 3,2 km/h (1 Bft) 100 %
09.07.2020 09:05 14,8 C 94 % 1015,8 hPa 0,0 l/m 0,4 km/h (0 Bft) 5 min 0,051 mm 0,7 UV-I 141 W/m 13,8 C 14,8 C 4,8 km/h (1 Bft) 100 %
09.07.2020 09:00 14,8 C 94 % 1015,7 hPa 0,0 l/m 1,0 km/h (0 Bft) 5 min 0,000 mm 0,7 UV-I 132 W/m 13,8 C 14,8 C 4,8 km/h (1 Bft) 100 %
09.07.2020 08:55 14,7 C 94 % 1015,6 hPa 0,0 l/m 0,0 km/h (0 Bft) 5 min 0,000 mm 0,7 UV-I 135 W/m 13,7 C 14,7 C 0,0 km/h (0 Bft) 99 %
09.07.2020 08:50 14,6 C 94 % 1015,7 hPa 0,0 l/m 0,0 km/h (0 Bft) 5 min 0,000 mm 0,6 UV-I 132 W/m 13,6 C 14,6 C 0,0 km/h (0 Bft) 100 %
09.07.2020 08:45 14,6 C 94 % 1015,7 hPa 0,0 l/m 0,3 km/h (0 Bft) 0 min 0,000 mm 0,5 UV-I 100 W/m 13,6 C 14,6 C 4,8 km/h (1 Bft) 100 %
09.07.2020 08:40 14,5 C 94 % 1015,7 hPa 0,0 l/m 0,1 km/h (0 Bft) 0 min 0,000 mm 0,0 UV-I 69 W/m 13,5 C 14,5 C 3,2 km/h (1 Bft) 100 %
09.07.2020 08:35 14,4 C 94 % 1015,7 hPa 0,0 l/m 1,0 km/h (0 Bft) 0 min 0,000 mm 0,0 UV-I 46 W/m 13,4 C 14,4 C 6,4 km/h (2 Bft) 99 %
09.07.2020 08:30 14,4 C 94 % 1015,9 hPa 0,0 l/m 1,0 km/h (0 Bft) 0 min 0,000 mm 0,0 UV-I 49 W/m 13,4 C 14,4 C 6,4 km/h (2 Bft) 100 %
09.07.2020 08:25 14,3 C 94 % 1016,2 hPa 0,0 l/m 1,0 km/h (0 Bft) 0 min 0,000 mm 0,0 UV-I 56 W/m 13,3 C 14,3 C 4,8 km/h (1 Bft) 100 %
09.07.2020 08:20 14,3 C 94 % 1016,2 hPa 0,0 l/m 0,1 km/h (0 Bft) 5 min 0,000 mm 0,0 UV-I 104 W/m 13,3 C 14,3 C 3,2 km/h (1 Bft) 100 %
09.07.2020 08:15 14,3 C 95 % 1016,2 hPa 0,0 l/m 0,0 km/h (0 Bft) 0 min 0,000 mm 0,0 UV-I 100 W/m 13,5 C 14,3 C 0,0 km/h (0 Bft) 100 %
09.07.2020 08:10 14,2 C 94 % 1016,3 hPa 0,0 l/m 0,4 km/h (0 Bft) 0 min 0,000 mm 0,0 UV-I 76 W/m 13,2 C 14,2 C 4,8 km/h (1 Bft) 100 %
09.07.2020 08:05 14,2 C 94 % 1016,2 hPa 0,0 l/m 0,5 km/h (0 Bft) 0 min 0,000 mm 0,0 UV-I 74 W/m 13,2 C 14,2 C 3,2 km/h (1 Bft) 100 %
09.07.2020 08:00 14,1 C 94 % 1016,1 hPa 0,0 l/m 1,1 km/h (1 Bft) 0 min 0,026 mm 0,0 UV-I 91 W/m 13,1 C 14,1 C 6,4 km/h (2 Bft) 100 %
09.07.2020 07:55 14,1 C 94 % 1016,2 hPa 0,0 l/m 0,1 km/h (0 Bft) 0 min 0,000 mm 0,0 UV-I 69 W/m 13,1 C 14,1 C 3,2 km/h (1 Bft) 100 %
09.07.2020 07:50 14,0 C 94 % 1016,3 hPa 0,0 l/m 0,0 km/h (0 Bft) 0 min 0,000 mm 0,0 UV-I 74 W/m 13,0 C 14,0 C 0,0 km/h (0 Bft) 99 %
09.07.2020 07:45 13,9 C 94 % 1016,2 hPa 0,0 l/m 0,2 km/h (0 Bft) 0 min 0,000 mm 0,0 UV-I 58 W/m 12,9 C 13,9 C 3,2 km/h (1 Bft) 100 %
09.07.2020 07:40 13,9 C 94 % 1016,2 hPa 0,0 l/m 1,3 km/h (1 Bft) 0 min 0,000 mm 0,0 UV-I 83 W/m 12,9 C 13,9 C 8,0 km/h (2 Bft) 100 %
09.07.2020 07:35 13,9 C 94 % 1016,3 hPa 0,0 l/m 0,3 km/h (0 Bft) 0 min 0,000 mm 0,0 UV-I 65 W/m 12,9 C 13,9 C 3,2 km/h (1 Bft) 100 %
09.07.2020 07:30 13,9 C 94 % 1016,1 hPa 0,0 l/m 0,6 km/h (0 Bft) 0 min 0,000 mm 0,0 UV-I 47 W/m 12,9 C 13,9 C 4,8 km/h (1 Bft) 100 %
09.07.2020 07:25 13,9 C 94 % 1016,2 hPa 0,0 l/m 0,1 km/h (0 Bft) 0 min 0,000 mm 0,0 UV-I 44 W/m 12,9 C 13,9 C 3,2 km/h (1 Bft) 100 %
09.07.2020 07:20 13,9 C 94 % 1016,2 hPa 0,0 l/m 0,5 km/h (0 Bft) 0 min 0,000 mm 0,0 UV-I 47 W/m 12,9 C 13,9 C 8,0 km/h (2 Bft) 100 %
09.07.2020 07:15 13,8 C 94 % 1016,3 hPa 0,0 l/m 0,2 km/h (0 Bft) 0 min 0,000 mm 0,0 UV-I 35 W/m 12,9 C 13,8 C 4,8 km/h (1 Bft) 99 %
09.07.2020 07:10 13,8 C 94 % 1016,3 hPa 0,0 l/m 0,3 km/h (0 Bft) 0 min 0,000 mm 0,0 UV-I 35 W/m 12,9 C 13,8 C 6,4 km/h (2 Bft) 100 %
09.07.2020 07:05 13,8 C 94 % 1016,3 hPa 0,0 l/m 1,2 km/h (1 Bft) 0 min 0,000 mm 0,0 UV-I 39 W/m 12,9 C 13,8 C 8,0 km/h (2 Bft) 99 %
09.07.2020 07:00 13,8 C 94 % 1016,3 hPa 0,0 l/m 0,0 km/h (0 Bft) 0 min 0,025 mm 0,0 UV-I 42 W/m 12,9 C 13,8 C 0,0 km/h (0 Bft) 100 %
09.07.2020 06:55 13,7 C 94 % 1016,3 hPa 0,0 l/m 0,0 km/h (0 Bft) 0 min 0,000 mm 0,0 UV-I 54 W/m 12,8 C 13,7 C 0,0 km/h (0 Bft) 100 %
09.07.2020 06:50 13,7 C 94 % 1016,3 hPa 0,0 l/m 0,4 km/h (0 Bft) 0 min 0,000 mm 0,0 UV-I 56 W/m 12,8 C 13,7 C 3,2 km/h (1 Bft) 100 %
09.07.2020 06:45 13,6 C 94 % 1016,3 hPa 0,0 l/m 0,4 km/h (0 Bft) 0 min 0,000 mm 0,0 UV-I 65 W/m 12,7 C 13,6 C 4,8 km/h (1 Bft) 100 %
09.07.2020 06:40 13,6 C 94 % 1016,3 hPa 0,0 l/m 0,1 km/h (0 Bft) 0 min 0,000 mm 0,0 UV-I 65 W/m 12,7 C 13,6 C 1,6 km/h (1 Bft) 100 %
09.07.2020 06:35 13,5 C 94 % 1016,3 hPa 0,0 l/m 0,0 km/h (0 Bft) 0 min 0,000 mm 0,0 UV-I 56 W/m 12,6 C 13,5 C 0,0 km/h (0 Bft) 100 %
09.07.2020 06:30 13,5 C 94 % 1016,3 hPa 0,0 l/m 1,8 km/h (1 Bft) 0 min 0,000 mm 0,0 UV-I 33 W/m 12,6 C 13,5 C 4,8 km/h (1 Bft) 100 %
09.07.2020 06:25 13,5 C 94 % 1016,4 hPa 0,0 l/m 0,9 km/h (0 Bft) 0 min 0,000 mm 0,0 UV-I 26 W/m 12,6 C 13,5 C 8,0 km/h (2 Bft) 100 %
09.07.2020 06:20 13,5 C 94 % 1016,5 hPa 0,0 l/m 0,4 km/h (0 Bft) 0 min 0,000 mm 0,0 UV-I 21 W/m 12,6 C 13,5 C 4,8 km/h (1 Bft) 100 %
09.07.2020 06:15 13,5 C 94 % 1016,5 hPa 0,0 l/m 0,6 km/h (0 Bft) 0 min 0,000 mm 0,0 UV-I 21 W/m 12,6 C 13,5 C 3,2 km/h (1 Bft) 100 %
09.07.2020 06:10 13,5 C 94 % 1016,5 hPa 0,0 l/m 0,0 km/h (0 Bft) 0 min 0,000 mm 0,0 UV-I 18 W/m 12,6 C 13,5 C 1,6 km/h (1 Bft) 100 %
09.07.2020 06:05 13,5 C 94 % 1016,5 hPa 0,0 l/m 0,3 km/h (0 Bft) 0 min 0,000 mm 0,0 UV-I 18 W/m 12,6 C 13,5 C 3,2 km/h (1 Bft) 99 %
09.07.2020 06:00 13,5 C 94 % 1016,5 hPa 0,0 l/m 0,0 km/h (0 Bft) 0 min 0,000 mm 0,0 UV-I 18 W/m 12,6 C 13,5 C 0,0 km/h (0 Bft) 100 %
09.07.2020 05:55 13,5 C 94 % 1016,6 hPa 0,0 l/m 0,0 km/h (0 Bft) 0 min 0,000 mm 0,0 UV-I 12 W/m 12,6 C 13,5 C 0,0 km/h (0 Bft) 100 %
09.07.2020 05:50 13,5 C 94 % 1016,7 hPa 0,0 l/m 0,0 km/h (0 Bft) 0 min 0,000 mm 0,0 UV-I 12 W/m 12,6 C 13,5 C 1,6 km/h (1 Bft) 99 %
09.07.2020 05:45 13,5 C 94 % 1016,7 hPa 0,0 l/m 0,1 km/h (0 Bft) 0 min 0,000 mm 0,0 UV-I 7 W/m 12,6 C 13,5 C 1,6 km/h (1 Bft) 100 %
09.07.2020 05:40 13,5 C 94 % 1016,7 hPa 0,0 l/m 0,0 km/h (0 Bft) 0 min 0,000 mm 0,0 UV-I 5 W/m 12,6 C 13,5 C 0,0 km/h (0 Bft) 100 %
09.07.2020 05:35 13,5 C 94 % 1016,8 hPa 0,0 l/m 0,0 km/h (0 Bft) 0 min 0,000 mm 0,0 UV-I 0 W/m 12,6 C 13,5 C 0,0 km/h (0 Bft) 100 %
09.07.2020 05:30 13,5 C 94 % 1016,8 hPa 0,0 l/m 0,0 km/h (0 Bft) 0 min 0,000 mm 0,0 UV-I 5 W/m 12,6 C 13,5 C 0,0 km/h (0 Bft) 99 %
09.07.2020 05:25 13,4 C 94 % 1016,8 hPa 0,0 l/m 0,0 km/h (0 Bft) 0 min 0,000 mm 0,0 UV-I 0 W/m 12,5 C 13,4 C 0,0 km/h (0 Bft) 99 %
09.07.2020 05:20 13,4 C 94 % 1016,8 hPa 0,2 l/m 0,0 km/h (0 Bft) 0 min 0,000 mm 0,0 UV-I 0 W/m 12,5 C 13,4 C 0,0 km/h (0 Bft) 100 %
09.07.2020 05:15 13,4 C 94 % 1016,9 hPa 0,0 l/m 0,0 km/h (0 Bft) 0 min 0,000 mm 0,0 UV-I 0 W/m 12,5 C 13,4 C 0,0 km/h (0 Bft) 100 %
09.07.2020 05:10 13,4 C 94 % 1016,9 hPa 0,0 l/m 0,0 km/h (0 Bft) 0 min 0,000 mm 0,0 UV-I 0 W/m 12,5 C 13,4 C 0,0 km/h (0 Bft) 99 %
09.07.2020 05:05 13,4 C 94 % 1016,9 hPa 0,0 l/m 0,1 km/h (0 Bft) 0 min 0,000 mm 0,0 UV-I 0 W/m 12,5 C 13,4 C 1,6 km/h (1 Bft) 98 %
09.07.2020 05:00 13,4 C 94 % 1016,9 hPa 0,2 l/m 0,0 km/h (0 Bft) 0 min 0,000 mm 0,0 UV-I 0 W/m 12,5 C 13,4 C 0,0 km/h (0 Bft) 100 %
09.07.2020 04:55 13,3 C 94 % 1016,9 hPa 0,0 l/m 0,0 km/h (0 Bft) 0 min 0,000 mm 0,0 UV-I 0 W/m 12,4 C 13,3 C 0,0 km/h (0 Bft) 100 %
09.07.2020 04:50 13,4 C 94 % 1016,9 hPa 0,0 l/m 0,0 km/h (0 Bft) 0 min 0,000 mm 0,0 UV-I 0 W/m 12,5 C 13,4 C 1,6 km/h (1 Bft) 99 %
09.07.2020 04:45 13,3 C 94 % 1016,8 hPa 0,0 l/m 0,0 km/h (0 Bft) 0 min 0,000 mm 0,0 UV-I 0 W/m 12,4 C 13,3 C 0,0 km/h (0 Bft) 100 %
09.07.2020 04:40 13,3 C 94 % 1016,8 hPa 0,0 l/m 0,0 km/h (0 Bft) 0 min 0,000 mm 0,0 UV-I 0 W/m 12,4 C 13,3 C 0,0 km/h (0 Bft) 100 %
09.07.2020 04:35 13,3 C 94 % 1016,7 hPa 0,0 l/m 0,0 km/h (0 Bft) 0 min 0,000 mm 0,0 UV-I 0 W/m 12,4 C 13,3 C 0,0 km/h (0 Bft) 100 %
09.07.2020 04:30 13,3 C 94 % 1016,7 hPa 0,0 l/m 0,0 km/h (0 Bft) 0 min 0,000 mm 0,0 UV-I 0 W/m 12,4 C 13,3 C 0,0 km/h (0 Bft) 100 %
09.07.2020 04:25 13,3 C 94 % 1016,7 hPa 0,0 l/m 0,2 km/h (0 Bft) 0 min 0,000 mm 0,0 UV-I 0 W/m 12,4 C 13,3 C 3,2 km/h (1 Bft) 100 %
09.07.2020 04:20 13,3 C 93 % 1016,7 hPa 0,0 l/m 0,0 km/h (0 Bft) 0 min 0,000 mm 0,0 UV-I 0 W/m 12,2 C 13,3 C 0,0 km/h (0 Bft) 100 %
09.07.2020 04:15 13,3 C 93 % 1016,8 hPa 0,0 l/m 0,0 km/h (0 Bft) 0 min 0,000 mm 0,0 UV-I 0 W/m 12,2 C 13,3 C 0,0 km/h (0 Bft) 99 %
09.07.2020 04:10 13,3 C 93 % 1016,7 hPa 0,0 l/m 0,0 km/h (0 Bft) 0 min 0,000 mm 0,0 UV-I 0 W/m 12,2 C 13,3 C 0,0 km/h (0 Bft) 100 %
09.07.2020 04:05 13,3 C 93 % 1016,7 hPa 0,0 l/m 0,0 km/h (0 Bft) 0 min 0,000 mm 0,0 UV-I 0 W/m 12,2 C 13,3 C 0,0 km/h (0 Bft) 99 %
09.07.2020 04:00 13,3 C 93 % 1016,7 hPa 0,0 l/m 0,0 km/h (0 Bft) 0 min 0,000 mm 0,0 UV-I 0 W/m 12,2 C 13,3 C 0,0 km/h (0 Bft) 100 %
09.07.2020 03:55 13,3 C 93 % 1016,7 hPa 0,0 l/m 0,0 km/h (0 Bft) 0 min 0,000 mm 0,0 UV-I 0 W/m 12,2 C 13,3 C 1,6 km/h (1 Bft) 100 %
09.07.2020 03:50 13,2 C 93 % 1016,8 hPa 0,0 l/m 0,0 km/h (0 Bft) 0 min 0,000 mm 0,0 UV-I 0 W/m 12,1 C 13,2 C 1,6 km/h (1 Bft) 100 %
09.07.2020 03:45 13,3 C 93 % 1016,8 hPa 0,0 l/m 0,0 km/h (0 Bft) 0 min 0,000 mm 0,0 UV-I 0 W/m 12,2 C 13,3 C 0,0 km/h (0 Bft) 100 %
09.07.2020 03:40 13,3 C 93 % 1016,8 hPa 0,0 l/m 0,0 km/h (0 Bft) 0 min 0,000 mm 0,0 UV-I 0 W/m 12,2 C 13,3 C 1,6 km/h (1 Bft) 100 %
09.07.2020 03:35 13,2 C 93 % 1016,9 hPa 0,0 l/m 0,0 km/h (0 Bft) 0 min 0,000 mm 0,0 UV-I 0 W/m 12,1 C 13,2 C 0,0 km/h (0 Bft) 100 %
09.07.2020 03:30 13,2 C 93 % 1016,9 hPa 0,0 l/m 0,0 km/h (0 Bft) 0 min 0,000 mm 0,0 UV-I 0 W/m 12,1 C 13,2 C 0,0 km/h (0 Bft) 100 %
09.07.2020 03:25 13,2 C 93 % 1016,9 hPa 0,0 l/m 0,0 km/h (0 Bft) 0 min 0,000 mm 0,0 UV-I 0 W/m 12,1 C 13,2 C 1,6 km/h (1 Bft) 99 %
09.07.2020 03:20 13,2 C 93 % 1017,0 hPa 0,0 l/m 0,0 km/h (0 Bft) 0 min 0,000 mm 0,0 UV-I 0 W/m 12,1 C 13,2 C 0,0 km/h (0 Bft) 100 %
09.07.2020 03:15 13,2 C 93 % 1017,1 hPa 0,0 l/m 0,0 km/h (0 Bft) 0 min 0,000 mm 0,0 UV-I 0 W/m 12,1 C 13,2 C 0,0 km/h (0 Bft) 100 %
09.07.2020 03:10 13,2 C 93 % 1017,2 hPa 0,0 l/m 0,0 km/h (0 Bft) 0 min 0,000 mm 0,0 UV-I 0 W/m 12,1 C 13,2 C 0,0 km/h (0 Bft) 100 %
09.07.2020 03:05 13,2 C 93 % 1017,2 hPa 0,0 l/m 0,0 km/h (0 Bft) 0 min 0,000 mm 0,0 UV-I 0 W/m 12,1 C 13,2 C 0,0 km/h (0 Bft) 99 %
09.07.2020 03:00 13,2 C 93 % 1017,1 hPa 0,0 l/m 0,0 km/h (0 Bft) 0 min 0,000 mm 0,0 UV-I 0 W/m 12,1 C 13,2 C 0,0 km/h (0 Bft) 100 %
09.07.2020 02:55 13,2 C 93 % 1017,0 hPa 0,0 l/m 0,0 km/h (0 Bft) 0 min 0,000 mm 0,0 UV-I 0 W/m 12,1 C 13,2 C 0,0 km/h (0 Bft) 99 %
09.07.2020 02:50 13,2 C 93 % 1017,1 hPa 0,0 l/m 0,0 km/h (0 Bft) 0 min 0,000 mm 0,0 UV-I 0 W/m 12,1 C 13,2 C 0,0 km/h (0 Bft) 100 %
09.07.2020 02:45 13,2 C 93 % 1017,3 hPa 0,0 l/m 0,0 km/h (0 Bft) 0 min 0,000 mm 0,0 UV-I 0 W/m 12,1 C 13,2 C 0,0 km/h (0 Bft) 100 %
09.07.2020 02:40 13,2 C 93 % 1017,2 hPa 0,0 l/m 0,0 km/h (0 Bft) 0 min 0,000 mm 0,0 UV-I 0 W/m 12,1 C 13,2 C 0,0 km/h (0 Bft) 100 %
09.07.2020 02:35 13,2 C 93 % 1017,2 hPa 0,0 l/m 0,0 km/h (0 Bft) 0 min 0,000 mm 0,0 UV-I 0 W/m 12,1 C 13,2 C 0,0 km/h (0 Bft) 100 %
09.07.2020 02:30 13,2 C 93 % 1017,3 hPa 0,0 l/m 0,0 km/h (0 Bft) 0 min 0,000 mm 0,0 UV-I 0 W/m 12,1 C 13,2 C 0,0 km/h (0 Bft) 98 %
09.07.2020 02:25 13,1 C 93 % 1017,2 hPa 0,0 l/m 0,0 km/h (0 Bft) 0 min 0,000 mm 0,0 UV-I 0 W/m 12,0 C 13,1 C 0,0 km/h (0 Bft) 100 %
09.07.2020 02:20 13,1 C 93 % 1017,2 hPa 0,0 l/m 0,0 km/h (0 Bft) 0 min 0,000 mm 0,0 UV-I 0 W/m 12,0 C 13,1 C 0,0 km/h (0 Bft) 100 %
09.07.2020 02:15 13,1 C 93 % 1017,5 hPa 0,0 l/m 0,0 km/h (0 Bft) 0 min 0,000 mm 0,0 UV-I 0 W/m 12,0 C 13,1 C 0,0 km/h (0 Bft) 100 %
09.07.2020 02:10 13,1 C 93 % 1017,4 hPa 0,0 l/m 0,0 km/h (0 Bft) 0 min 0,000 mm 0,0 UV-I 0 W/m 12,0 C 13,1 C 0,0 km/h (0 Bft) 100 %
09.07.2020 02:05 13,1 C 93 % 1017,3 hPa 0,0 l/m 0,0 km/h (0 Bft) 0 min 0,000 mm 0,0 UV-I 0 W/m 12,0 C 13,1 C 0,0 km/h (0 Bft) 100 %
09.07.2020 02:00 13,1 C 93 % 1017,4 hPa 0,0 l/m 0,0 km/h (0 Bft) 0 min 0,000 mm 0,0 UV-I 0 W/m 12,0 C 13,1 C 0,0 km/h (0 Bft) 100 %
09.07.2020 01:55 13,0 C 93 % 1017,2 hPa 0,0 l/m 0,0 km/h (0 Bft) 0 min 0,000 mm 0,0 UV-I 0 W/m 11,9 C 13,0 C 0,0 km/h (0 Bft) 100 %
09.07.2020 01:50 12,9 C 93 % 1017,4 hPa 0,0 l/m 0,0 km/h (0 Bft) 0 min 0,000 mm 0,0 UV-I 0 W/m 11,8 C 12,9 C 0,0 km/h (0 Bft) 99 %
09.07.2020 01:45 12,9 C 93 % 1017,3 hPa 0,0 l/m 0,0 km/h (0 Bft) 0 min 0,000 mm 0,0 UV-I 0 W/m 11,8 C 12,9 C 0,0 km/h (0 Bft) 100 %
09.07.2020 01:40 12,9 C 93 % 1017,2 hPa 0,0 l/m 0,0 km/h (0 Bft) 0 min 0,000 mm 0,0 UV-I 0 W/m 11,8 C 12,9 C 0,0 km/h (0 Bft) 100 %
09.07.2020 01:35 12,9 C 93 % 1017,4 hPa 0,0 l/m 0,0 km/h (0 Bft) 0 min 0,000 mm 0,0 UV-I 0 W/m 11,8 C 12,9 C 0,0 km/h (0 Bft) 100 %
09.07.2020 01:30 12,9 C 93 % 1017,4 hPa 0,0 l/m 0,0 km/h (0 Bft) 0 min 0,000 mm 0,0 UV-I 0 W/m 11,8 C 12,9 C 0,0 km/h (0 Bft) 100 %
09.07.2020 01:25 12,9 C 93 % 1017,4 hPa 0,0 l/m 0,0 km/h (0 Bft) 0 min 0,000 mm 0,0 UV-I 0 W/m 11,8 C 12,9 C 0,0 km/h (0 Bft) 100 %
09.07.2020 01:20 12,9 C 93 % 1017,4 hPa 0,0 l/m 0,0 km/h (0 Bft) 0 min 0,000 mm 0,0 UV-I 0 W/m 11,8 C 12,9 C 0,0 km/h (0 Bft) 99 %
09.07.2020 01:15 12,9 C 93 % 1017,4 hPa 0,0 l/m 0,0 km/h (0 Bft) 0 min 0,000 mm 0,0 UV-I 0 W/m 11,8 C 12,9 C 0,0 km/h (0 Bft) 100 %
09.07.2020 01:10 12,9 C 93 % 1017,6 hPa 0,0 l/m 0,0 km/h (0 Bft) 0 min 0,000 mm 0,0 UV-I 0 W/m 11,8 C 12,9 C 0,0 km/h (0 Bft) 100 %
09.07.2020 01:05 13,0 C 92 % 1017,7 hPa 0,0 l/m 0,0 km/h (0 Bft) 0 min 0,000 mm 0,0 UV-I 0 W/m 11,7 C 13,0 C 0,0 km/h (0 Bft) 100 %
09.07.2020 01:00 13,0 C 92 % 1017,7 hPa 0,0 l/m 0,0 km/h (0 Bft) 0 min 0,000 mm 0,0 UV-I 0 W/m 11,7 C 13,0 C 0,0 km/h (0 Bft) 99 %
09.07.2020 00:55 13,1 C 92 % 1017,7 hPa 0,0 l/m 0,0 km/h (0 Bft) 0 min 0,000 mm 0,0 UV-I 0 W/m 11,8 C 13,1 C 0,0 km/h (0 Bft) 100 %
09.07.2020 00:50 13,1 C 92 % 1017,7 hPa 0,0 l/m 0,0 km/h (0 Bft) 0 min 0,000 mm 0,0 UV-I 0 W/m 11,8 C 13,1 C 0,0 km/h (0 Bft) 100 %
09.07.2020 00:45 13,1 C 92 % 1017,7 hPa 0,0 l/m 0,0 km/h (0 Bft) 0 min 0,000 mm 0,0 UV-I 0 W/m 11,8 C 13,1 C 0,0 km/h (0 Bft) 100 %
09.07.2020 00:40 13,2 C 92 % 1017,8 hPa 0,0 l/m 0,0 km/h (0 Bft) 0 min 0,000 mm 0,0 UV-I 0 W/m 11,9 C 13,2 C 0,0 km/h (0 Bft) 100 %
09.07.2020 00:35 13,2 C 92 % 1017,9 hPa 0,0 l/m 0,0 km/h (0 Bft) 0 min 0,000 mm 0,0 UV-I 0 W/m 11,9 C 13,2 C 0,0 km/h (0 Bft) 100 %
09.07.2020 00:30 13,2 C 92 % 1018,0 hPa 0,0 l/m 0,0 km/h (0 Bft) 0 min 0,000 mm 0,0 UV-I 0 W/m 11,9 C 13,2 C 0,0 km/h (0 Bft) 100 %
09.07.2020 00:25 13,2 C 92 % 1018,0 hPa 0,0 l/m 0,0 km/h (0 Bft) 0 min 0,000 mm 0,0 UV-I 0 W/m 11,9 C 13,2 C 0,0 km/h (0 Bft) 100 %
09.07.2020 00:20 13,2 C 92 % 1018,0 hPa 0,0 l/m 0,0 km/h (0 Bft) 0 min 0,000 mm 0,0 UV-I 0 W/m 11,9 C 13,2 C 0,0 km/h (0 Bft) 100 %
09.07.2020 00:15 13,3 C 91 % 1018,0 hPa 0,0 l/m 0,0 km/h (0 Bft) 0 min 0,000 mm 0,0 UV-I 0 W/m 11,9 C 13,3 C 0,0 km/h (0 Bft) 100 %
09.07.2020 00:10 13,3 C 91 % 1018,0 hPa 0,0 l/m 0,0 km/h (0 Bft) 0 min 0,000 mm 0,0 UV-I 0 W/m 11,9 C 13,3 C 0,0 km/h (0 Bft) 100 %
09.07.2020 00:05 13,3 C 91 % 1018,0 hPa 0,0 l/m 0,0 km/h (0 Bft) 0 min 0,000 mm 0,0 UV-I 0 W/m 11,9 C 13,3 C 0,0 km/h (0 Bft) 99 %
09.07.2020 00:00 13,3 C 91 % 1018,0 hPa 0,0 l/m 0,0 km/h (0 Bft) 0 min 0,000 mm 0,0 UV-I 0 W/m 11,9 C 13,3 C 0,0 km/h (0 Bft) 100 %
08.07.2020 23:55 13,3 C 91 % 1018,1 hPa 0,0 l/m 0,0 km/h (0 Bft) 0 min 0,000 mm 0,0 UV-I 0 W/m 11,9 C 13,3 C 0,0 km/h (0 Bft) 99 %
08.07.2020 23:50 13,4 C 91 % 1018,2 hPa 0,0 l/m 0,0 km/h (0 Bft) 0 min 0,000 mm 0,0 UV-I 0 W/m 12,0 C 13,4 C 0,0 km/h (0 Bft) 100 %
08.07.2020 23:45 13,4 C 91 % 1018,1 hPa 0,0 l/m 0,0 km/h (0 Bft) 0 min 0,000 mm 0,0 UV-I 0 W/m 12,0 C 13,4 C 0,0 km/h (0 Bft) 100 %
08.07.2020 23:40 13,5 C 91 % 1018,0 hPa 0,0 l/m 0,0 km/h (0 Bft) 0 min 0,000 mm 0,0 UV-I 0 W/m 12,1 C 13,5 C 0,0 km/h (0 Bft) 100 %
08.07.2020 23:35 13,6 C 91 % 1018,0 hPa 0,0 l/m 0,0 km/h (0 Bft) 0 min 0,000 mm 0,0 UV-I 0 W/m 12,2 C 13,6 C 0,0 km/h (0 Bft) 100 %
08.07.2020 23:30 13,6 C 91 % 1017,9 hPa 0,0 l/m 0,0 km/h (0 Bft) 0 min 0,000 mm 0,0 UV-I 0 W/m 12,2 C 13,6 C 0,0 km/h (0 Bft) 100 %
08.07.2020 23:25 13,7 C 91 % 1017,9 hPa 0,0 l/m 0,0 km/h (0 Bft) 0 min 0,000 mm 0,0 UV-I 0 W/m 12,3 C 13,7 C 0,0 km/h (0 Bft) 100 %
08.07.2020 23:20 13,7 C 91 % 1017,8 hPa 0,0 l/m 0,0 km/h (0 Bft) 0 min 0,000 mm 0,0 UV-I 0 W/m 12,3 C 13,7 C 0,0 km/h (0 Bft) 100 %
08.07.2020 23:15 13,8 C 91 % 1018,0 hPa 0,0 l/m 0,0 km/h (0 Bft) 0 min 0,000 mm 0,0 UV-I 0 W/m 12,4 C 13,8 C 0,0 km/h (0 Bft) 100 %
08.07.2020 23:10 13,8 C 91 % 1017,9 hPa 0,0 l/m 0,0 km/h (0 Bft) 0 min 0,000 mm 0,0 UV-I 0 W/m 12,4 C 13,8 C 0,0 km/h (0 Bft) 100 %
08.07.2020 23:05 13,9 C 91 % 1017,9 hPa 0,0 l/m 0,0 km/h (0 Bft) 0 min 0,000 mm 0,0 UV-I 0 W/m 12,5 C 13,9 C 0,0 km/h (0 Bft) 99 %
08.07.2020 23:00 13,9 C 91 % 1018,1 hPa 0,0 l/m 0,0 km/h (0 Bft) 0 min 0,000 mm 0,0 UV-I 0 W/m 12,5 C 13,9 C 0,0 km/h (0 Bft) 99 %
08.07.2020 22:55 13,9 C 91 % 1018,2 hPa 0,0 l/m 0,0 km/h (0 Bft) 0 min 0,000 mm 0,0 UV-I 0 W/m 12,5 C 13,9 C 0,0 km/h (0 Bft) 100 %
08.07.2020 22:50 14,0 C 91 % 1018,2 hPa 0,0 l/m 0,0 km/h (0 Bft) 0 min 0,000 mm 0,0 UV-I 0 W/m 12,6 C 14,0 C 0,0 km/h (0 Bft) 100 %
08.07.2020 22:45 14,1 C 91 % 1018,2 hPa 0,0 l/m 0,0 km/h (0 Bft) 0 min 0,000 mm 0,0 UV-I 0 W/m 12,7 C 14,1 C 0,0 km/h (0 Bft) 100 %
08.07.2020 22:40 14,1 C 91 % 1018,3 hPa 0,0 l/m 0,0 km/h (0 Bft) 0 min 0,000 mm 0,0 UV-I 0 W/m 12,7 C 14,1 C 0,0 km/h (0 Bft) 100 %
08.07.2020 22:35 14,1 C 91 % 1018,1 hPa 0,0 l/m 0,0 km/h (0 Bft) 0 min 0,000 mm 0,0 UV-I 0 W/m 12,7 C 14,1 C 0,0 km/h (0 Bft) 99 %
08.07.2020 22:30 14,1 C 91 % 1018,2 hPa 0,0 l/m 0,0 km/h (0 Bft) 0 min 0,000 mm 0,0 UV-I 0 W/m 12,7 C 14,1 C 0,0 km/h (0 Bft) 100 %
08.07.2020 22:25 14,1 C 91 % 1018,2 hPa 0,0 l/m 0,0 km/h (0 Bft) 0 min 0,000 mm 0,0 UV-I 0 W/m 12,7 C 14,1 C 0,0 km/h (0 Bft) 100 %
08.07.2020 22:20 14,1 C 91 % 1018,0 hPa 0,0 l/m 0,0 km/h (0 Bft) 0 min 0,000 mm 0,0 UV-I 0 W/m 12,7 C 14,1 C 0,0 km/h (0 Bft) 100 %
08.07.2020 22:15 14,2 C 91 % 1018,1 hPa 0,0 l/m 0,0 km/h (0 Bft) 0 min 0,000 mm 0,0 UV-I 0 W/m 12,8 C 14,2 C 0,0 km/h (0 Bft) 99 %
08.07.2020 22:10 14,2 C 90 % 1018,0 hPa 0,0 l/m 0,0 km/h (0 Bft) 0 min 0,000 mm 0,0 UV-I 0 W/m 12,6 C 14,2 C 0,0 km/h (0 Bft) 99 %
08.07.2020 22:05 14,3 C 90 % 1017,9 hPa 0,0 l/m 0,0 km/h (0 Bft) 0 min 0,000 mm 0,0 UV-I 0 W/m 12,7 C 14,3 C 0,0 km/h (0 Bft) 99 %
08.07.2020 22:00 14,3 C 90 % 1017,9 hPa 0,0 l/m 0,0 km/h (0 Bft) 0 min 0,000 mm 0,0 UV-I 0 W/m 12,7 C 14,3 C 0,0 km/h (0 Bft) 100 %
08.07.2020 21:55 14,4 C 90 % 1017,9 hPa 0,0 l/m 0,0 km/h (0 Bft) 0 min 0,000 mm 0,0 UV-I 0 W/m 12,8 C 14,4 C 0,0 km/h (0 Bft) 100 %
08.07.2020 21:50 14,5 C 89 % 1017,9 hPa 0,0 l/m 0,0 km/h (0 Bft) 0 min 0,000 mm 0,0 UV-I 0 W/m 12,7 C 14,5 C 0,0 km/h (0 Bft) 100 %
08.07.2020 21:45 14,6 C 89 % 1017,9 hPa 0,0 l/m 0,0 km/h (0 Bft) 0 min 0,000 mm 0,0 UV-I 0 W/m 12,8 C 14,6 C 0,0 km/h (0 Bft) 100 %
08.07.2020 21:40 14,7 C 89 % 1017,8 hPa 0,0 l/m 0,0 km/h (0 Bft) 0 min 0,000 mm 0,0 UV-I 0 W/m 12,9 C 14,7 C 1,6 km/h (1 Bft) 98 %
08.07.2020 21:35 14,8 C 88 % 1017,8 hPa 0,0 l/m 0,0 km/h (0 Bft) 0 min 0,000 mm 0,0 UV-I 0 W/m 12,8 C 14,8 C 0,0 km/h (0 Bft) 100 %
08.07.2020 21:30 14,8 C 88 % 1017,7 hPa 0,0 l/m 0,0 km/h (0 Bft) 0 min 0,000 mm 0,0 UV-I 0 W/m 12,8 C 14,8 C 0,0 km/h (0 Bft) 100 %
08.07.2020 21:25 14,9 C 88 % 1017,7 hPa 0,0 l/m 0,0 km/h (0 Bft) 0 min 0,000 mm 0,0 UV-I 0 W/m 12,9 C 14,9 C 0,0 km/h (0 Bft) 100 %
08.07.2020 21:20 14,9 C 88 % 1017,7 hPa 0,0 l/m 0,0 km/h (0 Bft) 0 min 0,000 mm 0,0 UV-I 5 W/m 12,9 C 14,9 C 0,0 km/h (0 Bft) 100 %
08.07.2020 21:15 15,0 C 88 % 1017,7 hPa 0,0 l/m 0,1 km/h (0 Bft) 0 min 0,000 mm 0,0 UV-I 5 W/m 13,0 C 15,0 C 3,2 km/h (1 Bft) 99 %
08.07.2020 21:10 15,1 C 88 % 1017,6 hPa 0,0 l/m 0,7 km/h (0 Bft) 0 min 0,000 mm 0,0 UV-I 5 W/m 13,1 C 15,1 C 3,2 km/h (1 Bft) 100 %
08.07.2020 21:05 15,2 C 88 % 1017,7 hPa 0,0 l/m 0,5 km/h (0 Bft) 0 min 0,000 mm 0,0 UV-I 7 W/m 13,2 C 15,2 C 4,8 km/h (1 Bft) 98 %
08.07.2020 21:00 15,3 C 87 % 1017,7 hPa 0,0 l/m 0,2 km/h (0 Bft) 0 min 0,000 mm 0,0 UV-I 11 W/m 13,1 C 15,3 C 3,2 km/h (1 Bft) 100 %
08.07.2020 20:55 15,3 C 87 % 1017,7 hPa 0,0 l/m 0,4 km/h (0 Bft) 0 min 0,000 mm 0,0 UV-I 16 W/m 13,1 C 15,3 C 4,8 km/h (1 Bft) 99 %
08.07.2020 20:50 15,4 C 88 % 1017,6 hPa 0,0 l/m 0,0 km/h (0 Bft) 0 min 0,000 mm 0,0 UV-I 25 W/m 13,4 C 15,4 C 1,6 km/h (1 Bft) 100 %
08.07.2020 20:45 15,3 C 88 % 1017,7 hPa 0,0 l/m 0,0 km/h (0 Bft) 0 min 0,000 mm 0,0 UV-I 26 W/m 13,3 C 15,3 C 0,0 km/h (0 Bft) 100 %
08.07.2020 20:40 15,3 C 89 % 1017,6 hPa 0,0 l/m 0,0 km/h (0 Bft) 0 min 0,000 mm 0,0 UV-I 32 W/m 13,5 C 15,3 C 0,0 km/h (0 Bft) 100 %
08.07.2020 20:35 15,3 C 88 % 1017,6 hPa 0,0 l/m 0,0 km/h (0 Bft) 0 min 0,000 mm 0,0 UV-I 21 W/m 13,3 C 15,3 C 0,0 km/h (0 Bft) 100 %
08.07.2020 20:30 15,4 C 88 % 1017,6 hPa 0,0 l/m 0,0 km/h (0 Bft) 0 min 0,000 mm 0,0 UV-I 28 W/m 13,4 C 15,4 C 0,0 km/h (0 Bft) 100 %
08.07.2020 20:25 15,5 C 87 % 1017,5 hPa 0,0 l/m 0,0 km/h (0 Bft) 0 min 0,000 mm 0,0 UV-I 25 W/m 13,3 C 15,5 C 0,0 km/h (0 Bft) 100 %
08.07.2020 20:20 15,6 C 86 % 1017,5 hPa 0,0 l/m 0,0 km/h (0 Bft) 0 min 0,000 mm 0,0 UV-I 9 W/m 13,3 C 15,6 C 0,0 km/h (0 Bft) 100 %
08.07.2020 20:15 15,7 C 85 % 1017,6 hPa 0,0 l/m 0,0 km/h (0 Bft) 0 min 0,000 mm 0,0 UV-I 5 W/m 13,2 C 15,7 C 0,0 km/h (0 Bft) 100 %
08.07.2020 20:10 15,8 C 84 % 1017,5 hPa 0,0 l/m 0,0 km/h (0 Bft) 0 min 0,000 mm 0,0 UV-I 7 W/m 13,1 C 15,8 C 0,0 km/h (0 Bft) 99 %
08.07.2020 20:05 15,8 C 84 % 1017,5 hPa 0,0 l/m 0,0 km/h (0 Bft) 0 min 0,000 mm 0,0 UV-I 7 W/m 13,1 C 15,8 C 0,0 km/h (0 Bft) 100 %
08.07.2020 20:00 15,8 C 83 % 1017,4 hPa 0,0 l/m 0,0 km/h (0 Bft) 0 min 0,026 mm 0,0 UV-I 12 W/m 12,9 C 15,8 C 0,0 km/h (0 Bft) 100 %
08.07.2020 19:55 15,9 C 83 % 1017,4 hPa 0,0 l/m 0,0 km/h (0 Bft) 0 min 0,000 mm 0,0 UV-I 23 W/m 13,0 C 15,9 C 0,0 km/h (0 Bft) 100 %
08.07.2020 19:50 15,8 C 83 % 1017,4 hPa 0,0 l/m 0,0 km/h (0 Bft) 0 min 0,000 mm 0,0 UV-I 32 W/m 12,9 C 15,8 C 0,0 km/h (0 Bft) 100 %
08.07.2020 19:45 15,8 C 83 % 1017,3 hPa 0,0 l/m 0,0 km/h (0 Bft) 0 min 0,000 mm 0,0 UV-I 37 W/m 12,9 C 15,8 C 0,0 km/h (0 Bft) 100 %
08.07.2020 19:40 15,9 C 83 % 1017,3 hPa 0,0 l/m 0,0 km/h (0 Bft) 0 min 0,000 mm 0,0 UV-I 40 W/m 13,0 C 15,9 C 0,0 km/h (0 Bft) 100 %
08.07.2020 19:35 15,9 C 83 % 1017,3 hPa 0,0 l/m 0,0 km/h (0 Bft) 0 min 0,000 mm 0,0 UV-I 35 W/m 13,0 C 15,9 C 0,0 km/h (0 Bft) 100 %
08.07.2020 19:30 15,9 C 83 % 1017,2 hPa 0,0 l/m 0,0 km/h (0 Bft) 0 min 0,000 mm 0,0 UV-I 47 W/m 13,0 C 15,9 C 0,0 km/h (0 Bft) 100 %
08.07.2020 19:25 16,0 C 82 % 1017,3 hPa 0,0 l/m 0,0 km/h (0 Bft) 0 min 0,000 mm 0,0 UV-I 35 W/m 12,9 C 16,0 C 0,0 km/h (0 Bft) 100 %
08.07.2020 19:20 16,2 C 83 % 1017,3 hPa 0,0 l/m 0,0 km/h (0 Bft) 0 min 0,000 mm 0,0 UV-I 35 W/m 13,3 C 16,2 C 0,0 km/h (0 Bft) 100 %
08.07.2020 19:15 16,1 C 83 % 1017,3 hPa 0,0 l/m 0,0 km/h (0 Bft) 0 min 0,000 mm 0,0 UV-I 49 W/m 13,2 C 16,1 C 0,0 km/h (0 Bft) 100 %
08.07.2020 19:10 15,8 C 84 % 1017,2 hPa 0,0 l/m 0,0 km/h (0 Bft) 0 min 0,000 mm 0,0 UV-I 81 W/m 13,1 C 15,8 C 0,0 km/h (0 Bft) 100 %
08.07.2020 19:05 15,8 C 84 % 1017,3 hPa 0,0 l/m 0,0 km/h (0 Bft) 5 min 0,051 mm 0,0 UV-I 104 W/m 13,1 C 15,8 C 1,6 km/h (1 Bft) 100 %
08.07.2020 19:00 16,0 C 84 % 1017,3 hPa 0,0 l/m 0,0 km/h (0 Bft) 5 min 0,000 mm 0,0 UV-I 114 W/m 13,3 C 16,0 C 0,0 km/h (0 Bft) 100 %
08.07.2020 18:55 15,9 C 84 % 1017,3 hPa 0,0 l/m 0,0 km/h (0 Bft) 5 min 0,000 mm 0,0 UV-I 107 W/m 13,2 C 15,9 C 0,0 km/h (0 Bft) 100 %
08.07.2020 18:50 15,7 C 85 % 1017,3 hPa 0,0 l/m 0,0 km/h (0 Bft) 0 min 0,000 mm 0,0 UV-I 90 W/m 13,2 C 15,7 C 0,0 km/h (0 Bft) 99 %
08.07.2020 18:40 15,8 C 84 % 1017,4 hPa 0,0 l/m 0,0 km/h (0 Bft) 0 min 0,000 mm 0,0 UV-I 74 W/m 13,1 C 15,8 C 0,0 km/h (0 Bft) 100 %
08.07.2020 18:35 15,7 C 85 % 1017,4 hPa 0,0 l/m 0,0 km/h (0 Bft) 0 min 0,000 mm 0,0 UV-I 69 W/m 13,2 C 15,7 C 0,0 km/h (0 Bft) 100 %
08.07.2020 18:30 15,7 C 84 % 1017,4 hPa 0,0 l/m 0,0 km/h (0 Bft) 0 min 0,000 mm 0,0 UV-I 95 W/m 13,0 C 15,7 C 0,0 km/h (0 Bft) 100 %
08.07.2020 18:25 15,6 C 84 % 1017,3 hPa 0,0 l/m 0,0 km/h (0 Bft) 5 min 0,000 mm 0,0 UV-I 102 W/m 12,9 C 15,6 C 0,0 km/h (0 Bft) 100 %
08.07.2020 18:20 15,5 C 85 % 1017,3 hPa 0,0 l/m 0,0 km/h (0 Bft) 0 min 0,000 mm 0,0 UV-I 98 W/m 13,0 C 15,5 C 0,0 km/h (0 Bft) 100 %
08.07.2020 18:15 15,4 C 85 % 1017,3 hPa 0,0 l/m 0,0 km/h (0 Bft) 5 min 0,000 mm 0,0 UV-I 102 W/m 12,9 C 15,4 C 0,0 km/h (0 Bft) 100 %
08.07.2020 18:10 15,3 C 85 % 1017,3 hPa 0,0 l/m 0,0 km/h (0 Bft) 0 min 0,000 mm 0,0 UV-I 97 W/m 12,8 C 15,3 C 0,0 km/h (0 Bft) 100 %
08.07.2020 18:05 15,3 C 86 % 1017,3 hPa 0,0 l/m 0,0 km/h (0 Bft) 0 min 0,000 mm 0,0 UV-I 95 W/m 13,0 C 15,3 C 0,0 km/h (0 Bft) 99 %
08.07.2020 18:00 15,3 C 85 % 1017,3 hPa 0,0 l/m 0,0 km/h (0 Bft) 5 min 0,050 mm 0,6 UV-I 151 W/m 12,8 C 15,3 C 0,0 km/h (0 Bft) 100 %
08.07.2020 17:55 15,4 C 86 % 1017,3 hPa 0,0 l/m 0,0 km/h (0 Bft) 5 min 0,000 mm 0,7 UV-I 158 W/m 13,1 C 15,4 C 0,0 km/h (0 Bft) 100 %
08.07.2020 17:50 15,3 C 86 % 1017,3 hPa 0,0 l/m 0,0 km/h (0 Bft) 5 min 0,000 mm 0,6 UV-I 144 W/m 13,0 C 15,3 C 0,0 km/h (0 Bft) 100 %
08.07.2020 17:45 15,2 C 86 % 1017,3 hPa 0,0 l/m 0,0 km/h (0 Bft) 5 min 0,000 mm 0,7 UV-I 151 W/m 12,9 C 15,2 C 0,0 km/h (0 Bft) 100 %
08.07.2020 17:40 15,1 C 86 % 1017,4 hPa 0,0 l/m 0,0 km/h (0 Bft) 5 min 0,000 mm 0,5 UV-I 116 W/m 12,8 C 15,1 C 0,0 km/h (0 Bft) 99 %
08.07.2020 17:35 15,1 C 86 % 1017,4 hPa 0,0 l/m 0,0 km/h (0 Bft) 5 min 0,000 mm 0,0 UV-I 111 W/m 12,8 C 15,1 C 0,0 km/h (0 Bft) 100 %
08.07.2020 17:30 14,9 C 87 % 1017,5 hPa 0,0 l/m 0,0 km/h (0 Bft) 0 min 0,000 mm 0,0 UV-I 84 W/m 12,8 C 14,9 C 0,0 km/h (0 Bft) 100 %
08.07.2020 17:25 14,9 C 87 % 1017,5 hPa 0,0 l/m 0,0 km/h (0 Bft) 0 min 0,000 mm 0,0 UV-I 60 W/m 12,8 C 14,9 C 0,0 km/h (0 Bft) 100 %
08.07.2020 17:20 14,8 C 87 % 1017,5 hPa 0,0 l/m 0,0 km/h (0 Bft) 0 min 0,000 mm 0,0 UV-I 46 W/m 12,7 C 14,8 C 0,0 km/h (0 Bft) 100 %
08.07.2020 17:15 14,8 C 87 % 1017,5 hPa 0,0 l/m 0,0 km/h (0 Bft) 0 min 0,000 mm 0,0 UV-I 54 W/m 12,7 C 14,8 C 0,0 km/h (0 Bft) 100 %
08.07.2020 17:10 14,8 C 87 % 1017,4 hPa 0,0 l/m 0,0 km/h (0 Bft) 0 min 0,000 mm 0,0 UV-I 69 W/m 12,7 C 14,8 C 0,0 km/h (0 Bft) 99 %
08.07.2020 17:05 14,8 C 87 % 1017,4 hPa 0,0 l/m 0,0 km/h (0 Bft) 0 min 0,026 mm 0,0 UV-I 62 W/m 12,7 C 14,8 C 0,0 km/h (0 Bft) 100 %
08.07.2020 17:00 14,7 C 87 % 1017,5 hPa 0,0 l/m 0,0 km/h (0 Bft) 0 min 0,000 mm 0,0 UV-I 62 W/m 12,6 C 14,7 C 0,0 km/h (0 Bft) 100 %
08.07.2020 16:55 14,8 C 87 % 1017,5 hPa 0,0 l/m 0,0 km/h (0 Bft) 0 min 0,000 mm 0,0 UV-I 49 W/m 12,7 C 14,8 C 0,0 km/h (0 Bft) 100 %
08.07.2020 16:50 14,7 C 86 % 1017,4 hPa 0,0 l/m 0,0 km/h (0 Bft) 0 min 0,000 mm 0,0 UV-I 40 W/m 12,4 C 14,7 C 0,0 km/h (0 Bft) 100 %
08.07.2020 16:45 14,8 C 87 % 1017,4 hPa 0,0 l/m 0,0 km/h (0 Bft) 0 min 0,000 mm 0,0 UV-I 25 W/m 12,7 C 14,8 C 0,0 km/h (0 Bft) 99 %
08.07.2020 16:40 14,8 C 86 % 1017,4 hPa 0,0 l/m 0,0 km/h (0 Bft) 0 min 0,000 mm 0,0 UV-I 26 W/m 12,5 C 14,8 C 0,0 km/h (0 Bft) 98 %
08.07.2020 16:35 14,8 C 86 % 1017,3 hPa 0,0 l/m 0,0 km/h (0 Bft) 0 min 0,000 mm 0,0 UV-I 28 W/m 12,5 C 14,8 C 0,0 km/h (0 Bft) 99 %
08.07.2020 16:30 14,9 C 86 % 1017,4 hPa 0,0 l/m 0,0 km/h (0 Bft) 0 min 0,000 mm 0,0 UV-I 33 W/m 12,6 C 14,9 C 0,0 km/h (0 Bft) 100 %
08.07.2020 16:25 15,1 C 85 % 1017,3 hPa 0,0 l/m 0,3 km/h (0 Bft) 0 min 0,000 mm 0,0 UV-I 35 W/m 12,6 C 15,1 C 3,2 km/h (1 Bft) 100 %
08.07.2020 16:20 15,3 C 85 % 1017,4 hPa 0,0 l/m 0,5 km/h (0 Bft) 0 min 0,000 mm 0,0 UV-I 23 W/m 12,8 C 15,3 C 6,4 km/h (2 Bft) 100 %
08.07.2020 16:15 15,3 C 85 % 1017,3 hPa 0,0 l/m 0,1 km/h (0 Bft) 0 min 0,000 mm 0,0 UV-I 35 W/m 12,8 C 15,3 C 3,2 km/h (1 Bft) 99 %
08.07.2020 16:10 15,2 C 85 % 1017,3 hPa 0,0 l/m 0,0 km/h (0 Bft) 0 min 0,000 mm 0,0 UV-I 65 W/m 12,7 C 15,2 C 0,0 km/h (0 Bft) 100 %
08.07.2020 16:05 15,1 C 85 % 1017,2 hPa 0,0 l/m 0,0 km/h (0 Bft) 0 min 0,051 mm 0,0 UV-I 72 W/m 12,6 C 15,1 C 0,0 km/h (0 Bft) 100 %
08.07.2020 16:00 15,1 C 84 % 1017,3 hPa 0,0 l/m 0,0 km/h (0 Bft) 0 min 0,000 mm 0,0 UV-I 23 W/m 12,4 C 15,1 C 1,6 km/h (1 Bft) 100 %
08.07.2020 15:55 15,1 C 85 % 1017,3 hPa 0,0 l/m 0,0 km/h (0 Bft) 0 min 0,000 mm 0,0 UV-I 25 W/m 12,6 C 15,1 C 0,0 km/h (0 Bft) 100 %
08.07.2020 15:50 15,2 C 84 % 1017,3 hPa 0,0 l/m 0,0 km/h (0 Bft) 0 min 0,000 mm 0,0 UV-I 35 W/m 12,5 C 15,2 C 0,0 km/h (0 Bft) 100 %
08.07.2020 15:45 15,4 C 85 % 1017,2 hPa 0,0 l/m 0,7 km/h (0 Bft) 0 min 0,000 mm 0,0 UV-I 42 W/m 12,9 C 15,4 C 4,8 km/h (1 Bft) 100 %
08.07.2020 15:40 15,5 C 85 % 1017,2 hPa 0,0 l/m 0,4 km/h (0 Bft) 0 min 0,000 mm 0,0 UV-I 74 W/m 13,0 C 15,5 C 3,2 km/h (1 Bft) 100 %
08.07.2020 15:35 15,4 C 85 % 1017,2 hPa 0,0 l/m 1,2 km/h (1 Bft) 5 min 0,000 mm 1,4 UV-I 199 W/m 12,9 C 15,4 C 6,4 km/h (2 Bft) 100 %
08.07.2020 15:30 15,1 C 85 % 1017,2 hPa 0,0 l/m 1,6 km/h (1 Bft) 5 min 0,000 mm 1,6 UV-I 204 W/m 12,6 C 15,1 C 8,0 km/h (2 Bft) 100 %
08.07.2020 15:25 15,2 C 85 % 1017,2 hPa 0,0 l/m 1,7 km/h (1 Bft) 5 min 0,000 mm 1,1 UV-I 146 W/m 12,7 C 15,2 C 6,4 km/h (2 Bft) 100 %
08.07.2020 15:20 15,2 C 86 % 1017,2 hPa 0,0 l/m 0,5 km/h (0 Bft) 0 min 0,000 mm 0,5 UV-I 84 W/m 12,9 C 15,2 C 6,4 km/h (2 Bft) 100 %
08.07.2020 15:15 15,3 C 86 % 1017,1 hPa 0,0 l/m 0,4 km/h (0 Bft) 0 min 0,000 mm 0,6 UV-I 81 W/m 13,0 C 15,3 C 4,8 km/h (1 Bft) 100 %
08.07.2020 15:10 15,5 C 85 % 1017,0 hPa 0,0 l/m 0,1 km/h (0 Bft) 5 min 0,000 mm 1,0 UV-I 128 W/m 13,0 C 15,5 C 1,6 km/h (1 Bft) 100 %
08.07.2020 15:05 15,6 C 84 % 1017,0 hPa 0,0 l/m 1,1 km/h (1 Bft) 5 min 0,000 mm 1,1 UV-I 139 W/m 12,9 C 15,6 C 6,4 km/h (2 Bft) 100 %
08.07.2020 15:00 15,8 C 84 % 1016,9 hPa 0,0 l/m 0,9 km/h (0 Bft) 5 min 0,152 mm 0,7 UV-I 104 W/m 13,1 C 15,8 C 6,4 km/h (2 Bft) 100 %
08.07.2020 14:55 15,9 C 84 % 1016,9 hPa 0,0 l/m 0,1 km/h (0 Bft) 5 min 0,000 mm 1,3 UV-I 195 W/m 13,2 C 15,9 C 3,2 km/h (1 Bft) 99 %
08.07.2020 14:50 15,9 C 82 % 1016,8 hPa 0,0 l/m 0,4 km/h (0 Bft) 5 min 0,000 mm 1,3 UV-I 218 W/m 12,8 C 15,9 C 4,8 km/h (1 Bft) 100 %
08.07.2020 14:45 16,1 C 81 % 1016,9 hPa 0,0 l/m 0,7 km/h (0 Bft) 5 min 0,000 mm 1,2 UV-I 190 W/m 12,8 C 16,1 C 4,8 km/h (1 Bft) 100 %
08.07.2020 14:40 16,1 C 82 % 1016,8 hPa 0,0 l/m 1,1 km/h (1 Bft) 5 min 0,000 mm 1,4 UV-I 185 W/m 13,0 C 16,1 C 6,4 km/h (2 Bft) 100 %
08.07.2020 14:35 16,1 C 81 % 1016,8 hPa 0,0 l/m 3,8 km/h (1 Bft) 5 min 0,000 mm 2,3 UV-I 304 W/m 12,8 C 16,1 C 11,3 km/h (2 Bft) 100 %
08.07.2020 14:30 16,1 C 81 % 1016,8 hPa 0,0 l/m 3,2 km/h (1 Bft) 5 min 0,000 mm 2,3 UV-I 315 W/m 12,8 C 16,1 C 11,3 km/h (2 Bft) 100 %
08.07.2020 14:25 16,1 C 79 % 1016,8 hPa 0,0 l/m 6,0 km/h (2 Bft) 5 min 0,000 mm 2,1 UV-I 297 W/m 12,5 C 16,1 C 11,3 km/h (2 Bft) 99 %
08.07.2020 14:20 16,0 C 81 % 1016,8 hPa 0,0 l/m 3,7 km/h (1 Bft) 5 min 0,000 mm 2,2 UV-I 306 W/m 12,7 C 16,0 C 11,3 km/h (2 Bft) 100 %
08.07.2020 14:15 15,7 C 80 % 1016,7 hPa 0,0 l/m 6,6 km/h (2 Bft) 5 min 0,000 mm 2,4 UV-I 345 W/m 12,3 C 15,6 C 16,1 km/h (3 Bft) 100 %
08.07.2020 14:10 15,6 C 80 % 1016,7 hPa 0,0 l/m 6,6 km/h (2 Bft) 5 min 0,000 mm 2,7 UV-I 374 W/m 12,2 C 15,5 C 11,3 km/h (2 Bft) 100 %
08.07.2020 14:05 15,5 C 81 % 1016,8 hPa 0,0 l/m 6,5 km/h (2 Bft) 5 min 0,152 mm 3,0 UV-I 436 W/m 12,3 C 15,5 C 11,3 km/h (2 Bft) 100 %
08.07.2020 14:00 15,4 C 81 % 1016,8 hPa 0,0 l/m 5,6 km/h (1 Bft) 5 min 0,000 mm 2,1 UV-I 279 W/m 12,2 C 15,4 C 12,9 km/h (3 Bft) 100 %
08.07.2020 13:55 15,4 C 82 % 1016,8 hPa 0,0 l/m 2,5 km/h (1 Bft) 5 min 0,000 mm 2,1 UV-I 276 W/m 12,3 C 15,4 C 9,7 km/h (2 Bft) 100 %
08.07.2020 13:50 15,2 C 82 % 1016,8 hPa 0,0 l/m 6,2 km/h (2 Bft) 5 min 0,000 mm 2,2 UV-I 304 W/m 12,1 C 15,2 C 14,5 km/h (3 Bft) 100 %
08.07.2020 13:45 15,2 C 82 % 1016,7 hPa 0,0 l/m 5,7 km/h (1 Bft) 5 min 0,000 mm 2,0 UV-I 262 W/m 12,1 C 15,2 C 16,1 km/h (3 Bft) 100 %
08.07.2020 13:40 15,3 C 83 % 1016,8 hPa 0,0 l/m 3,9 km/h (1 Bft) 5 min 0,000 mm 1,4 UV-I 192 W/m 12,4 C 15,3 C 11,3 km/h (2 Bft) 100 %
08.07.2020 13:35 15,6 C 83 % 1016,7 hPa 0,0 l/m 3,8 km/h (1 Bft) 5 min 0,000 mm 1,3 UV-I 174 W/m 12,7 C 15,6 C 9,7 km/h (2 Bft) 100 %
08.07.2020 13:30 15,5 C 82 % 1016,8 hPa 0,0 l/m 4,3 km/h (1 Bft) 5 min 0,000 mm 1,3 UV-I 178 W/m 12,4 C 15,5 C 11,3 km/h (2 Bft) 100 %
08.07.2020 13:25 15,4 C 83 % 1016,9 hPa 0,0 l/m 5,4 km/h (1 Bft) 5 min 0,000 mm 2,4 UV-I 304 W/m 12,5 C 15,4 C 14,5 km/h (3 Bft) 100 %
08.07.2020 13:20 15,3 C 84 % 1016,9 hPa 0,0 l/m 3,0 km/h (1 Bft) 5 min 0,000 mm 1,6 UV-I 213 W/m 12,6 C 15,3 C 16,1 km/h (3 Bft) 100 %
08.07.2020 13:15 15,3 C 86 % 1016,8 hPa 0,0 l/m 0,2 km/h (0 Bft) 5 min 0,000 mm 2,1 UV-I 279 W/m 13,0 C 15,3 C 3,2 km/h (1 Bft) 100 %
08.07.2020 13:10 15,1 C 86 % 1016,8 hPa 0,0 l/m 1,7 km/h (1 Bft) 5 min 0,000 mm 2,8 UV-I 369 W/m 12,8 C 15,1 C 9,7 km/h (2 Bft) 100 %
08.07.2020 13:05 15,1 C 87 % 1016,8 hPa 0,0 l/m 0,0 km/h (0 Bft) 5 min 0,000 mm 2,2 UV-I 323 W/m 13,0 C 15,1 C 1,6 km/h (1 Bft) 100 %
08.07.2020 13:00 14,9 C 88 % 1016,8 hPa 0,0 l/m 0,0 km/h (0 Bft) 5 min 0,051 mm 1,8 UV-I 251 W/m 12,9 C 14,9 C 0,0 km/h (0 Bft) 100 %
08.07.2020 12:55 14,6 C 89 % 1016,8 hPa 0,0 l/m 0,0 km/h (0 Bft) 5 min 0,000 mm 2,2 UV-I 301 W/m 12,8 C 14,6 C 0,0 km/h (0 Bft) 100 %
08.07.2020 12:50 14,2 C 88 % 1016,8 hPa 0,0 l/m 0,0 km/h (0 Bft) 5 min 0,000 mm 1,3 UV-I 190 W/m 12,2 C 14,2 C 0,0 km/h (0 Bft) 99 %
08.07.2020 12:45 14,2 C 89 % 1016,8 hPa 0,0 l/m 0,0 km/h (0 Bft) 5 min 0,000 mm 1,1 UV-I 163 W/m 12,4 C 14,2 C 0,0 km/h (0 Bft) 100 %
08.07.2020 12:40 13,8 C 89 % 1016,8 hPa 0,0 l/m 0,6 km/h (0 Bft) 5 min 0,000 mm 0,7 UV-I 104 W/m 12,0 C 13,8 C 4,8 km/h (1 Bft) 100 %
08.07.2020 12:35 13,7 C 88 % 1016,8 hPa 0,0 l/m 0,5 km/h (0 Bft) 0 min 0,000 mm 0,0 UV-I 70 W/m 11,7 C 13,7 C 6,4 km/h (2 Bft) 100 %
08.07.2020 12:30 13,7 C 88 % 1016,8 hPa 0,0 l/m 0,7 km/h (0 Bft) 0 min 0,000 mm 0,0 UV-I 46 W/m 11,7 C 13,7 C 4,8 km/h (1 Bft) 100 %
08.07.2020 12:25 13,7 C 89 % 1016,8 hPa 0,0 l/m 0,0 km/h (0 Bft) 0 min 0,000 mm 0,0 UV-I 32 W/m 11,9 C 13,7 C 0,0 km/h (0 Bft) 100 %
08.07.2020 12:20 13,7 C 88 % 1016,6 hPa 0,0 l/m 0,2 km/h (0 Bft) 0 min 0,000 mm 0,0 UV-I 33 W/m 11,7 C 13,7 C 3,2 km/h (1 Bft) 100 %
08.07.2020 12:15 13,7 C 88 % 1016,7 hPa 0,0 l/m 0,1 km/h (0 Bft) 0 min 0,000 mm 0,0 UV-I 33 W/m 11,7 C 13,7 C 3,2 km/h (1 Bft) 100 %
08.07.2020 12:10 13,7 C 88 % 1016,7 hPa 0,0 l/m 1,1 km/h (1 Bft) 0 min 0,000 mm 0,0 UV-I 39 W/m 11,7 C 13,7 C 8,0 km/h (2 Bft) 100 %
08.07.2020 12:05 13,8 C 87 % 1016,7 hPa 0,0 l/m 1,4 km/h (1 Bft) 0 min 0,000 mm 0,0 UV-I 49 W/m 11,7 C 13,8 C 6,4 km/h (2 Bft) 99 %
08.07.2020 12:00 13,8 C 87 % 1016,7 hPa 0,0 l/m 2,4 km/h (1 Bft) 0 min 0,051 mm 0,0 UV-I 53 W/m 11,7 C 13,8 C 8,0 km/h (2 Bft) 100 %
_ Min-Zeit 01:10 14:25 11:30 - 12:25 - - - - 12:00 01:10 12:25 21:05
Minimum _ 12,9 C 79 % 1014,7 hPa - 0,0 km/h (0 Bft) - - - - 11,7 C 12,9 C 0,0 km/h (0 Bft) 98 %
_ Max-Zeit 11:40 08:15 22:40 05:00 14:10 12:40 14:05 14:05 14:05 11:40 11:40 13:20 12:00
Maximum _ 17,6 C 95 % 1018,3 hPa 0,2 l/m 6,6 km/h
W (2 Bft)
5 min 0,152 mm 3,0 UV-I 436 W/m 16,1 C 17,6 C 16,1 km/h
W-NW (3 Bft)
100 %
Durchschnitt _ 14,5 C 90 % 1016,9 hPa #1,0 l/m 0,6 km/h (0 Bft) #2:45 h #0,254 mm 1,0 UV-I 96 W/m 12,7 C 14,5 C 2,6 km/h (1 Bft) 100 %